sensor_id;sensor_type;location;lat;lon;timestamp;noise_LAeq;noise_LA_min;noise_LA_max;noise_LA01;noise_LA95
64642;Laerm;59936;51.490;5.436;2023-08-30T00:00:16;37.88;33.13;44.74;;
64642;Laerm;59936;51.490;5.436;2023-08-30T00:05:32;39.53;35.64;42.88;;
64642;Laerm;59936;51.490;5.436;2023-08-30T00:08:02;37.69;33.46;41.93;;
64642;Laerm;59936;51.490;5.436;2023-08-30T00:10:31;36.40;31.82;40.70;;
64642;Laerm;59936;51.490;5.436;2023-08-30T00:13:00;37.66;32.20;49.10;;
64642;Laerm;59936;51.490;5.436;2023-08-30T00:15:28;37.91;34.61;43.11;;
64642;Laerm;59936;51.490;5.436;2023-08-30T00:17:57;38.33;35.19;42.13;;
64642;Laerm;59936;51.490;5.436;2023-08-30T00:20:26;36.41;33.34;41.37;;
64642;Laerm;59936;51.490;5.436;2023-08-30T00:22:54;37.57;33.71;43.25;;
64642;Laerm;59936;51.490;5.436;2023-08-30T00:25:23;37.43;33.55;42.66;;
64642;Laerm;59936;51.490;5.436;2023-08-30T00:27:51;38.14;34.92;42.24;;
64642;Laerm;59936;51.490;5.436;2023-08-30T00:30:20;37.47;33.65;42.61;;
64642;Laerm;59936;51.490;5.436;2023-08-30T00:32:48;38.20;34.80;43.19;;
64642;Laerm;59936;51.490;5.436;2023-08-30T00:35:17;38.30;33.57;43.77;;
64642;Laerm;59936;51.490;5.436;2023-08-30T00:37:46;37.97;33.57;46.06;;
64642;Laerm;59936;51.490;5.436;2023-08-30T00:40:14;37.81;34.74;41.97;;
64642;Laerm;59936;51.490;5.436;2023-08-30T00:42:43;37.58;34.13;41.36;;
64642;Laerm;59936;51.490;5.436;2023-08-30T00:45:11;39.17;35.00;43.27;;
64642;Laerm;59936;51.490;5.436;2023-08-30T00:47:40;36.26;32.59;42.21;;
64642;Laerm;59936;51.490;5.436;2023-08-30T00:50:09;37.87;33.85;42.77;;
64642;Laerm;59936;51.490;5.436;2023-08-30T00:52:38;38.72;33.57;42.51;;
64642;Laerm;59936;51.490;5.436;2023-08-30T00:55:07;36.27;32.88;43.03;;
64642;Laerm;59936;51.490;5.436;2023-08-30T00:57:37;39.60;36.61;45.83;;
64642;Laerm;59936;51.490;5.436;2023-08-30T01:00:06;41.05;35.82;45.96;;
64642;Laerm;59936;51.490;5.436;2023-08-30T01:02:36;38.35;34.78;42.80;;
64642;Laerm;59936;51.490;5.436;2023-08-30T01:05:05;38.17;34.08;46.49;;
64642;Laerm;59936;51.490;5.436;2023-08-30T01:07:33;39.86;36.42;46.38;;
64642;Laerm;59936;51.490;5.436;2023-08-30T01:10:02;38.55;35.41;48.88;;
64642;Laerm;59936;51.490;5.436;2023-08-30T01:12:44;38.23;34.39;44.22;;
64642;Laerm;59936;51.490;5.436;2023-08-30T01:15:19;38.00;34.82;41.90;;
64642;Laerm;59936;51.490;5.436;2023-08-30T01:17:48;37.31;34.46;42.62;;
64642;Laerm;59936;51.490;5.436;2023-08-30T01:20:19;37.40;33.86;43.58;;
64642;Laerm;59936;51.490;5.436;2023-08-30T01:28:54;37.68;33.03;42.23;;
64642;Laerm;59936;51.490;5.436;2023-08-30T01:31:27;38.04;32.88;42.79;;
64642;Laerm;59936;51.490;5.436;2023-08-30T01:33:57;36.05;31.17;42.37;;
64642;Laerm;59936;51.490;5.436;2023-08-30T01:36:26;36.57;33.14;40.35;;
64642;Laerm;59936;51.490;5.436;2023-08-30T01:38:58;39.65;36.21;45.04;;
64642;Laerm;59936;51.490;5.436;2023-08-30T01:41:29;39.77;35.13;46.46;;
64642;Laerm;59936;51.490;5.436;2023-08-30T01:43:58;36.71;32.78;44.60;;
64642;Laerm;59936;51.490;5.436;2023-08-30T01:46:27;36.39;32.59;42.35;;
64642;Laerm;59936;51.490;5.436;2023-08-30T01:48:56;36.18;31.79;42.40;;
64642;Laerm;59936;51.490;5.436;2023-08-30T01:51:25;40.44;33.05;63.88;;
64642;Laerm;59936;51.490;5.436;2023-08-30T01:53:55;39.00;35.83;44.64;;
64642;Laerm;59936;51.490;5.436;2023-08-30T01:56:25;37.91;33.98;41.86;;
64642;Laerm;59936;51.490;5.436;2023-08-30T01:58:54;37.67;34.09;42.09;;
64642;Laerm;59936;51.490;5.436;2023-08-30T02:01:23;37.53;34.41;42.08;;
64642;Laerm;59936;51.490;5.436;2023-08-30T02:03:51;38.24;34.12;44.06;;
64642;Laerm;59936;51.490;5.436;2023-08-30T02:06:47;37.70;33.61;42.85;;
64642;Laerm;59936;51.490;5.436;2023-08-30T02:09:39;37.44;33.51;42.07;;
64642;Laerm;59936;51.490;5.436;2023-08-30T02:12:14;38.36;34.89;48.00;;
64642;Laerm;59936;51.490;5.436;2023-08-30T02:14:47;38.47;35.06;43.99;;
64642;Laerm;59936;51.490;5.436;2023-08-30T02:17:18;37.86;33.90;42.52;;
64642;Laerm;59936;51.490;5.436;2023-08-30T02:19:47;39.37;33.70;59.03;;
64642;Laerm;59936;51.490;5.436;2023-08-30T02:22:16;39.00;35.36;43.01;;
64642;Laerm;59936;51.490;5.436;2023-08-30T02:24:44;39.31;35.89;44.22;;
64642;Laerm;59936;51.490;5.436;2023-08-30T02:27:13;38.00;34.73;43.15;;
64642;Laerm;59936;51.490;5.436;2023-08-30T02:29:41;38.49;35.29;42.25;;
64642;Laerm;59936;51.490;5.436;2023-08-30T02:32:10;38.73;34.28;44.56;;
64642;Laerm;59936;51.490;5.436;2023-08-30T02:34:39;39.67;35.88;43.96;;
64642;Laerm;59936;51.490;5.436;2023-08-30T02:37:07;39.48;36.16;45.05;;
64642;Laerm;59936;51.490;5.436;2023-08-30T02:39:36;40.54;35.98;49.79;;
64642;Laerm;59936;51.490;5.436;2023-08-30T02:42:04;39.69;35.26;44.60;;
64642;Laerm;59936;51.490;5.436;2023-08-30T02:44:33;40.56;36.76;46.05;;
64642;Laerm;59936;51.490;5.436;2023-08-30T02:47:02;39.56;36.09;44.68;;
64642;Laerm;59936;51.490;5.436;2023-08-30T02:49:30;39.14;35.55;44.61;;
64642;Laerm;59936;51.490;5.436;2023-08-30T02:51:59;39.78;37.19;43.30;;
64642;Laerm;59936;51.490;5.436;2023-08-30T02:54:27;39.92;35.26;44.26;;
64642;Laerm;59936;51.490;5.436;2023-08-30T02:56:56;39.00;36.10;42.82;;
64642;Laerm;59936;51.490;5.436;2023-08-30T02:59:25;38.50;35.68;42.20;;
64642;Laerm;59936;51.490;5.436;2023-08-30T03:01:53;39.02;34.83;42.48;;
64642;Laerm;59936;51.490;5.436;2023-08-30T03:04:22;38.76;35.64;41.34;;
64642;Laerm;59936;51.490;5.436;2023-08-30T03:06:50;39.97;37.28;43.48;;
64642;Laerm;59936;51.490;5.436;2023-08-30T03:09:19;39.68;36.80;50.95;;
64642;Laerm;59936;51.490;5.436;2023-08-30T03:11:47;40.25;37.73;46.35;;
64642;Laerm;59936;51.490;5.436;2023-08-30T03:14:16;40.33;37.01;47.65;;
64642;Laerm;59936;51.490;5.436;2023-08-30T03:16:45;41.02;37.79;43.97;;
64642;Laerm;59936;51.490;5.436;2023-08-30T03:19:13;41.69;38.28;47.19;;
64642;Laerm;59936;51.490;5.436;2023-08-30T03:21:42;41.76;38.82;46.29;;
64642;Laerm;59936;51.490;5.436;2023-08-30T03:24:10;41.16;38.59;47.88;;
64642;Laerm;59936;51.490;5.436;2023-08-30T03:26:39;41.80;37.72;46.82;;
64642;Laerm;59936;51.490;5.436;2023-08-30T03:29:07;41.14;38.83;44.73;;
64642;Laerm;59936;51.490;5.436;2023-08-30T03:31:36;42.06;39.79;45.72;;
64642;Laerm;59936;51.490;5.436;2023-08-30T03:34:05;42.77;39.45;46.64;;
64642;Laerm;59936;51.490;5.436;2023-08-30T03:36:33;43.87;39.92;48.11;;
64642;Laerm;59936;51.490;5.436;2023-08-30T03:39:02;42.14;39.70;45.69;;
64642;Laerm;59936;51.490;5.436;2023-08-30T03:41:30;42.77;40.34;45.48;;
64642;Laerm;59936;51.490;5.436;2023-08-30T03:43:59;42.65;40.20;51.06;;
64642;Laerm;59936;51.490;5.436;2023-08-30T03:46:28;42.86;39.84;51.04;;
64642;Laerm;59936;51.490;5.436;2023-08-30T03:48:56;43.18;41.02;51.16;;
64642;Laerm;59936;51.490;5.436;2023-08-30T03:51:25;43.28;40.44;47.81;;
64642;Laerm;59936;51.490;5.436;2023-08-30T03:53:53;43.60;40.71;49.09;;
64642;Laerm;59936;51.490;5.436;2023-08-30T03:56:22;42.97;39.94;45.29;;
64642;Laerm;59936;51.490;5.436;2023-08-30T03:58:51;43.36;40.40;46.15;;
64642;Laerm;59936;51.490;5.436;2023-08-30T04:01:20;43.58;40.65;50.07;;
64642;Laerm;59936;51.490;5.436;2023-08-30T04:03:48;43.84;41.17;46.16;;
64642;Laerm;59936;51.490;5.436;2023-08-30T04:06:17;43.54;40.35;48.60;;
64642;Laerm;59936;51.490;5.436;2023-08-30T04:08:45;44.24;41.68;48.07;;
64642;Laerm;59936;51.490;5.436;2023-08-30T04:11:14;44.96;42.21;52.16;;
64642;Laerm;59936;51.490;5.436;2023-08-30T04:13:42;44.14;41.47;51.75;;
64642;Laerm;59936;51.490;5.436;2023-08-30T04:16:11;50.68;41.54;68.46;;
64642;Laerm;59936;51.490;5.436;2023-08-30T04:18:40;46.50;41.59;63.31;;
64642;Laerm;59936;51.490;5.436;2023-08-30T04:21:08;45.45;42.72;56.58;;
64642;Laerm;59936;51.490;5.436;2023-08-30T04:23:37;45.38;42.52;54.63;;
64642;Laerm;59936;51.490;5.436;2023-08-30T04:26:05;45.16;43.06;49.91;;
64642;Laerm;59936;51.490;5.436;2023-08-30T04:28:34;45.49;43.32;55.62;;
64642;Laerm;59936;51.490;5.436;2023-08-30T04:31:03;46.11;42.90;56.37;;
64642;Laerm;59936;51.490;5.436;2023-08-30T04:33:31;45.38;43.24;54.55;;
64642;Laerm;59936;51.490;5.436;2023-08-30T04:36:00;45.51;42.25;51.61;;
64642;Laerm;59936;51.490;5.436;2023-08-30T04:38:28;46.03;43.02;55.61;;
64642;Laerm;59936;51.490;5.436;2023-08-30T04:41:00;46.90;43.82;52.27;;
64642;Laerm;59936;51.490;5.436;2023-08-30T04:43:28;45.94;43.32;53.87;;
64642;Laerm;59936;51.490;5.436;2023-08-30T04:45:57;47.02;43.34;62.26;;
64642;Laerm;59936;51.490;5.436;2023-08-30T04:48:25;45.92;43.89;58.42;;
64642;Laerm;59936;51.490;5.436;2023-08-30T04:51:02;46.14;43.88;54.66;;
64642;Laerm;59936;51.490;5.436;2023-08-30T04:53:31;46.86;44.60;53.88;;
64642;Laerm;59936;51.490;5.436;2023-08-30T04:55:59;46.31;44.71;51.65;;
64642;Laerm;59936;51.490;5.436;2023-08-30T04:58:28;45.15;42.98;49.79;;
64642;Laerm;59936;51.490;5.436;2023-08-30T05:00:57;45.00;43.18;48.13;;
64642;Laerm;59936;51.490;5.436;2023-08-30T05:03:25;45.32;43.61;48.83;;
64642;Laerm;59936;51.490;5.436;2023-08-30T05:05:54;45.30;43.25;52.34;;
64642;Laerm;59936;51.490;5.436;2023-08-30T05:08:22;45.29;43.59;54.94;;
64642;Laerm;59936;51.490;5.436;2023-08-30T05:10:54;46.44;44.22;51.14;;
64642;Laerm;59936;51.490;5.436;2023-08-30T05:13:23;46.19;43.51;52.76;;
64642;Laerm;59936;51.490;5.436;2023-08-30T05:15:51;46.38;44.19;54.83;;
64642;Laerm;59936;51.490;5.436;2023-08-30T05:18:20;46.26;44.10;52.57;;
64642;Laerm;59936;51.490;5.436;2023-08-30T05:20:49;45.87;44.06;51.45;;
64642;Laerm;59936;51.490;5.436;2023-08-30T05:23:17;45.71;43.60;50.00;;
64642;Laerm;59936;51.490;5.436;2023-08-30T05:25:46;45.44;43.16;52.02;;
64642;Laerm;59936;51.490;5.436;2023-08-30T05:28:14;45.21;43.17;50.70;;
64642;Laerm;59936;51.490;5.436;2023-08-30T05:30:44;45.33;43.23;54.23;;
64642;Laerm;59936;51.490;5.436;2023-08-30T05:33:12;46.91;43.62;64.31;;
64642;Laerm;59936;51.490;5.436;2023-08-30T05:35:41;46.01;43.84;49.43;;
64642;Laerm;59936;51.490;5.436;2023-08-30T05:38:10;45.53;44.06;48.44;;
64642;Laerm;59936;51.490;5.436;2023-08-30T05:40:38;45.88;44.13;49.10;;
64642;Laerm;59936;51.490;5.436;2023-08-30T05:43:07;45.79;43.76;48.91;;
64642;Laerm;59936;51.490;5.436;2023-08-30T05:45:35;45.24;43.43;60.37;;
64642;Laerm;59936;51.490;5.436;2023-08-30T05:48:05;45.53;43.38;51.47;;
64642;Laerm;59936;51.490;5.436;2023-08-30T05:50:34;45.30;43.65;49.50;;
64642;Laerm;59936;51.490;5.436;2023-08-30T05:53:03;46.12;43.44;53.15;;
64642;Laerm;59936;51.490;5.436;2023-08-30T05:55:32;51.89;43.13;62.55;;
64642;Laerm;59936;51.490;5.436;2023-08-30T05:58:00;46.07;43.55;66.05;;
64642;Laerm;59936;51.490;5.436;2023-08-30T06:00:29;49.92;42.91;70.09;;
64642;Laerm;59936;51.490;5.436;2023-08-30T06:02:57;44.93;43.34;47.68;;
64642;Laerm;59936;51.490;5.436;2023-08-30T06:05:26;52.70;42.92;64.17;;
64642;Laerm;59936;51.490;5.436;2023-08-30T06:07:55;52.48;42.88;65.32;;
64642;Laerm;59936;51.490;5.436;2023-08-30T06:10:23;45.55;43.66;53.33;;
64642;Laerm;59936;51.490;5.436;2023-08-30T06:12:52;48.55;43.35;57.92;;
64642;Laerm;59936;51.490;5.436;2023-08-30T06:15:21;46.01;44.13;51.60;;
64642;Laerm;59936;51.490;5.436;2023-08-30T06:17:49;45.49;43.08;59.25;;
64642;Laerm;59936;51.490;5.436;2023-08-30T06:20:18;48.83;43.32;64.15;;
64642;Laerm;59936;51.490;5.436;2023-08-30T06:22:50;53.04;43.20;75.68;;
64642;Laerm;59936;51.490;5.436;2023-08-30T06:25:19;47.03;43.52;63.25;;
64642;Laerm;59936;51.490;5.436;2023-08-30T06:27:59;45.39;43.49;51.66;;
64642;Laerm;59936;51.490;5.436;2023-08-30T06:30:29;52.80;44.22;66.03;;
64642;Laerm;59936;51.490;5.436;2023-08-30T06:32:58;45.72;43.80;49.07;;
64642;Laerm;59936;51.490;5.436;2023-08-30T06:35:26;45.65;43.45;60.68;;
64642;Laerm;59936;51.490;5.436;2023-08-30T06:37:55;45.18;43.32;51.90;;
64642;Laerm;59936;51.490;5.436;2023-08-30T06:40:24;47.47;43.29;53.23;;
64642;Laerm;59936;51.490;5.436;2023-08-30T06:42:53;47.67;43.90;55.64;;
64642;Laerm;59936;51.490;5.436;2023-08-30T06:45:21;45.99;43.58;50.83;;
64642;Laerm;59936;51.490;5.436;2023-08-30T06:47:50;47.39;44.42;57.01;;
64642;Laerm;59936;51.490;5.436;2023-08-30T06:50:18;53.79;44.96;66.76;;
64642;Laerm;59936;51.490;5.436;2023-08-30T06:52:47;44.88;43.33;51.26;;
64642;Laerm;59936;51.490;5.436;2023-08-30T06:55:16;44.61;42.52;47.85;;
64642;Laerm;59936;51.490;5.436;2023-08-30T06:57:48;46.18;43.14;51.86;;
64642;Laerm;59936;51.490;5.436;2023-08-30T07:00:17;48.98;44.91;56.61;;
64642;Laerm;59936;51.490;5.436;2023-08-30T07:02:46;55.71;49.41;66.79;;
64642;Laerm;59936;51.490;5.436;2023-08-30T07:05:14;52.57;49.85;57.57;;
64642;Laerm;59936;51.490;5.436;2023-08-30T07:07:43;53.47;51.18;61.96;;
64642;Laerm;59936;51.490;5.436;2023-08-30T07:10:12;54.07;51.77;59.29;;
64642;Laerm;59936;51.490;5.436;2023-08-30T07:12:40;54.53;51.84;58.27;;
64642;Laerm;59936;51.490;5.436;2023-08-30T07:15:09;51.32;49.00;55.13;;
64642;Laerm;59936;51.490;5.436;2023-08-30T07:17:37;51.95;48.93;56.42;;
64642;Laerm;59936;51.490;5.436;2023-08-30T07:20:07;56.85;53.66;65.42;;
64642;Laerm;59936;51.490;5.436;2023-08-30T07:22:36;54.34;51.27;59.78;;
64642;Laerm;59936;51.490;5.436;2023-08-30T07:25:05;54.72;51.66;63.81;;
64642;Laerm;59936;51.490;5.436;2023-08-30T07:27:33;56.97;51.81;68.70;;
64642;Laerm;59936;51.490;5.436;2023-08-30T07:30:03;53.17;51.15;56.78;;
64642;Laerm;59936;51.490;5.436;2023-08-30T07:32:31;50.20;47.62;55.82;;
64642;Laerm;59936;51.490;5.436;2023-08-30T07:35:00;51.54;49.33;55.04;;
64642;Laerm;59936;51.490;5.436;2023-08-30T07:37:29;51.80;49.83;58.22;;
64642;Laerm;59936;51.490;5.436;2023-08-30T07:39:57;49.02;46.42;53.49;;
64642;Laerm;59936;51.490;5.436;2023-08-30T07:42:26;48.27;46.15;52.82;;
64642;Laerm;59936;51.490;5.436;2023-08-30T07:44:54;49.85;46.69;57.52;;
64642;Laerm;59936;51.490;5.436;2023-08-30T07:47:23;49.77;47.01;54.86;;
64642;Laerm;59936;51.490;5.436;2023-08-30T07:49:52;49.89;46.72;57.10;;
64642;Laerm;59936;51.490;5.436;2023-08-30T07:52:20;51.87;46.87;60.27;;
64642;Laerm;59936;51.490;5.436;2023-08-30T07:54:49;47.59;44.75;50.69;;
64642;Laerm;59936;51.490;5.436;2023-08-30T07:57:17;46.82;44.37;50.45;;
64642;Laerm;59936;51.490;5.436;2023-08-30T07:59:46;47.86;45.89;51.22;;
64642;Laerm;59936;51.490;5.436;2023-08-30T08:02:15;49.01;47.30;52.03;;
64642;Laerm;59936;51.490;5.436;2023-08-30T08:04:43;50.15;46.97;59.14;;
64642;Laerm;59936;51.490;5.436;2023-08-30T08:07:12;49.69;46.85;54.96;;
64642;Laerm;59936;51.490;5.436;2023-08-30T08:09:40;53.02;46.49;66.08;;
64642;Laerm;59936;51.490;5.436;2023-08-30T08:12:09;53.58;47.18;66.87;;
64642;Laerm;59936;51.490;5.436;2023-08-30T08:14:37;48.16;46.27;52.17;;
64642;Laerm;59936;51.490;5.436;2023-08-30T08:17:06;48.10;45.47;51.51;;
64642;Laerm;59936;51.490;5.436;2023-08-30T08:19:35;49.96;47.82;52.73;;
64642;Laerm;59936;51.490;5.436;2023-08-30T08:22:03;50.53;48.13;54.49;;
64642;Laerm;59936;51.490;5.436;2023-08-30T08:24:32;50.57;47.74;56.75;;
64642;Laerm;59936;51.490;5.436;2023-08-30T08:27:00;54.64;48.25;68.08;;
64642;Laerm;59936;51.490;5.436;2023-08-30T08:29:29;50.50;47.95;54.38;;
64642;Laerm;59936;51.490;5.436;2023-08-30T08:31:58;50.21;47.18;54.33;;
64642;Laerm;59936;51.490;5.436;2023-08-30T08:34:26;49.49;47.32;52.59;;
64642;Laerm;59936;51.490;5.436;2023-08-30T08:36:55;48.41;46.45;55.07;;
64642;Laerm;59936;51.490;5.436;2023-08-30T08:39:23;49.96;47.14;56.29;;
64642;Laerm;59936;51.490;5.436;2023-08-30T08:41:54;49.88;46.93;58.00;;
64642;Laerm;59936;51.490;5.436;2023-08-30T08:44:24;49.39;46.61;52.88;;
64642;Laerm;59936;51.490;5.436;2023-08-30T08:47:00;58.10;46.44;76.65;;
64642;Laerm;59936;51.490;5.436;2023-08-30T08:49:29;51.26;47.25;66.94;;
64642;Laerm;59936;51.490;5.436;2023-08-30T08:51:58;53.46;47.02;66.12;;
64642;Laerm;59936;51.490;5.436;2023-08-30T08:54:27;49.87;47.16;52.49;;
64642;Laerm;59936;51.490;5.436;2023-08-30T08:56:57;49.85;47.48;55.43;;
64642;Laerm;59936;51.490;5.436;2023-08-30T08:59:25;50.74;48.08;63.52;;
64642;Laerm;59936;51.490;5.436;2023-08-30T09:01:54;54.29;48.05;69.68;;
64642;Laerm;59936;51.490;5.436;2023-08-30T09:04:24;50.02;47.07;55.35;;
64642;Laerm;59936;51.490;5.436;2023-08-30T09:06:53;48.98;46.73;52.31;;
64642;Laerm;59936;51.490;5.436;2023-08-30T09:09:22;50.26;46.96;69.31;;
64642;Laerm;59936;51.490;5.436;2023-08-30T09:11:50;53.97;47.54;65.44;;
64642;Laerm;59936;51.490;5.436;2023-08-30T09:14:19;48.53;46.41;51.41;;
64642;Laerm;59936;51.490;5.436;2023-08-30T09:17:14;49.19;46.16;57.33;;
64642;Laerm;59936;51.490;5.436;2023-08-30T09:19:43;48.27;46.10;51.94;;
64642;Laerm;59936;51.490;5.436;2023-08-30T09:22:11;48.28;45.29;51.95;;
64642;Laerm;59936;51.490;5.436;2023-08-30T09:24:41;49.01;45.79;55.12;;
64642;Laerm;59936;51.490;5.436;2023-08-30T09:27:09;53.82;46.24;66.49;;
64642;Laerm;59936;51.490;5.436;2023-08-30T09:29:38;48.93;46.59;62.21;;
64642;Laerm;59936;51.490;5.436;2023-08-30T09:32:07;49.85;45.96;64.28;;
64642;Laerm;59936;51.490;5.436;2023-08-30T09:34:36;48.17;45.93;52.78;;
64642;Laerm;59936;51.490;5.436;2023-08-30T09:37:23;50.49;46.87;64.78;;
64642;Laerm;59936;51.490;5.436;2023-08-30T09:39:52;48.51;46.16;56.46;;
64642;Laerm;59936;51.490;5.436;2023-08-30T09:42:22;50.63;45.28;61.64;;
64642;Laerm;59936;51.490;5.436;2023-08-30T09:44:50;48.66;46.02;53.24;;
64642;Laerm;59936;51.490;5.436;2023-08-30T09:47:24;53.81;45.35;66.11;;
64642;Laerm;59936;51.490;5.436;2023-08-30T09:49:55;47.99;45.80;54.28;;
64642;Laerm;59936;51.490;5.436;2023-08-30T09:52:24;54.52;46.23;66.56;;
64642;Laerm;59936;51.490;5.436;2023-08-30T09:54:54;51.05;44.93;64.16;;
64642;Laerm;59936;51.490;5.436;2023-08-30T09:57:24;48.61;45.15;55.72;;
64642;Laerm;59936;51.490;5.436;2023-08-30T09:59:54;53.81;44.64;66.72;;
64642;Laerm;59936;51.490;5.436;2023-08-30T10:02:24;48.01;45.30;54.84;;
64642;Laerm;59936;51.490;5.436;2023-08-30T10:04:53;50.55;44.15;64.82;;
64642;Laerm;59936;51.490;5.436;2023-08-30T10:07:23;51.90;45.63;69.68;;
64642;Laerm;59936;51.490;5.436;2023-08-30T10:09:53;47.56;44.53;54.45;;
64642;Laerm;59936;51.490;5.436;2023-08-30T10:12:23;57.06;45.90;70.65;;
64642;Laerm;59936;51.490;5.436;2023-08-30T10:14:52;47.85;45.56;50.45;;
64642;Laerm;59936;51.490;5.436;2023-08-30T10:17:27;48.75;45.27;54.20;;
64642;Laerm;59936;51.490;5.436;2023-08-30T10:19:56;53.86;45.55;66.41;;
64642;Laerm;59936;51.490;5.436;2023-08-30T10:22:26;49.27;44.77;71.70;;
64642;Laerm;59936;51.490;5.436;2023-08-30T10:25:05;48.68;44.34;57.11;;
64642;Laerm;59936;51.490;5.436;2023-08-30T10:27:39;47.70;45.07;52.56;;
64642;Laerm;59936;51.490;5.436;2023-08-30T10:30:11;54.18;45.96;67.70;;
64642;Laerm;59936;51.490;5.436;2023-08-30T10:32:41;56.30;47.04;70.10;;
64642;Laerm;59936;51.490;5.436;2023-08-30T10:35:12;48.94;45.27;67.39;;
64642;Laerm;59936;51.490;5.436;2023-08-30T10:37:53;48.55;45.58;53.42;;
64642;Laerm;59936;51.490;5.436;2023-08-30T10:40:22;48.35;44.92;53.58;;
64642;Laerm;59936;51.490;5.436;2023-08-30T10:43:03;52.91;45.15;64.61;;
64642;Laerm;59936;51.490;5.436;2023-08-30T10:45:32;51.73;45.81;65.41;;
64642;Laerm;59936;51.490;5.436;2023-08-30T10:48:00;47.91;44.64;54.48;;
64642;Laerm;59936;51.490;5.436;2023-08-30T10:50:34;51.35;43.46;69.94;;
64642;Laerm;59936;51.490;5.436;2023-08-30T10:53:02;53.53;44.63;68.37;;
64642;Laerm;59936;51.490;5.436;2023-08-30T10:55:31;47.34;43.76;52.97;;
64642;Laerm;59936;51.490;5.436;2023-08-30T10:58:02;47.88;44.03;58.56;;
64642;Laerm;59936;51.490;5.436;2023-08-30T11:00:31;47.95;43.92;62.21;;
64642;Laerm;59936;51.490;5.436;2023-08-30T11:03:00;53.56;44.99;69.07;;
64642;Laerm;59936;51.490;5.436;2023-08-30T11:05:29;48.74;44.28;64.75;;
64642;Laerm;59936;51.490;5.436;2023-08-30T11:07:58;48.27;44.86;56.38;;
64642;Laerm;59936;51.490;5.436;2023-08-30T11:10:26;47.86;45.17;56.88;;
64642;Laerm;59936;51.490;5.436;2023-08-30T11:12:55;49.77;45.20;55.49;;
64642;Laerm;59936;51.490;5.436;2023-08-30T11:15:26;47.73;44.38;59.73;;
64642;Laerm;59936;51.490;5.436;2023-08-30T11:18:02;48.31;44.74;54.41;;
64642;Laerm;59936;51.490;5.436;2023-08-30T11:20:31;48.50;45.36;61.83;;
64642;Laerm;59936;51.490;5.436;2023-08-30T11:23:02;47.76;45.10;57.34;;
64642;Laerm;59936;51.490;5.436;2023-08-30T11:25:32;51.61;44.74;63.26;;
64642;Laerm;59936;51.490;5.436;2023-08-30T11:28:04;47.08;43.95;50.70;;
64642;Laerm;59936;51.490;5.436;2023-08-30T11:30:33;47.52;44.82;49.95;;
64642;Laerm;59936;51.490;5.436;2023-08-30T11:33:02;47.55;43.43;50.90;;
64642;Laerm;59936;51.490;5.436;2023-08-30T11:35:31;47.37;44.49;54.37;;
64642;Laerm;59936;51.490;5.436;2023-08-30T11:38:00;49.78;46.06;62.79;;
64642;Laerm;59936;51.490;5.436;2023-08-30T11:40:28;50.95;48.17;54.79;;
64642;Laerm;59936;51.490;5.436;2023-08-30T11:42:57;54.85;48.04;67.26;;
64642;Laerm;59936;51.490;5.436;2023-08-30T11:45:25;50.31;47.62;54.08;;
64642;Laerm;59936;51.490;5.436;2023-08-30T11:47:54;49.65;47.44;53.54;;
64642;Laerm;59936;51.490;5.436;2023-08-30T11:50:23;49.41;46.57;53.08;;
64642;Laerm;59936;51.490;5.436;2023-08-30T11:52:53;48.44;46.57;52.03;;
64642;Laerm;59936;51.490;5.436;2023-08-30T11:55:22;48.93;46.90;53.21;;
64642;Laerm;59936;51.490;5.436;2023-08-30T11:57:51;51.10;47.37;65.72;;
64642;Laerm;59936;51.490;5.436;2023-08-30T12:00:20;54.43;48.15;68.56;;
64642;Laerm;59936;51.490;5.436;2023-08-30T12:02:49;52.02;49.39;57.48;;
64642;Laerm;59936;51.490;5.436;2023-08-30T12:05:18;52.01;48.84;57.09;;
64642;Laerm;59936;51.490;5.436;2023-08-30T12:07:46;52.26;48.53;63.09;;
64642;Laerm;59936;51.490;5.436;2023-08-30T12:10:18;51.97;46.83;63.39;;
64642;Laerm;59936;51.490;5.436;2023-08-30T12:12:46;51.35;47.19;56.82;;
64642;Laerm;59936;51.490;5.436;2023-08-30T12:15:15;52.49;48.65;61.31;;
64642;Laerm;59936;51.490;5.436;2023-08-30T12:17:43;51.61;48.35;59.57;;
64642;Laerm;59936;51.490;5.436;2023-08-30T12:20:17;54.12;48.47;65.60;;
64642;Laerm;59936;51.490;5.436;2023-08-30T12:22:46;50.18;47.39;57.80;;
64642;Laerm;59936;51.490;5.436;2023-08-30T12:25:22;50.11;46.98;55.45;;
64642;Laerm;59936;51.490;5.436;2023-08-30T12:27:51;48.94;46.55;53.60;;
64642;Laerm;59936;51.490;5.436;2023-08-30T12:30:19;49.14;46.25;53.90;;
64642;Laerm;59936;51.490;5.436;2023-08-30T12:32:48;54.27;46.81;65.85;;
64642;Laerm;59936;51.490;5.436;2023-08-30T12:35:17;52.28;48.12;60.88;;
64642;Laerm;59936;51.490;5.436;2023-08-30T12:37:49;55.56;49.29;70.59;;
64642;Laerm;59936;51.490;5.436;2023-08-30T12:40:18;53.90;49.17;64.57;;
64642;Laerm;59936;51.490;5.436;2023-08-30T12:42:46;52.46;49.36;61.87;;
64642;Laerm;59936;51.490;5.436;2023-08-30T12:45:15;51.22;48.55;55.97;;
64642;Laerm;59936;51.490;5.436;2023-08-30T12:47:44;53.21;49.32;67.05;;
64642;Laerm;59936;51.490;5.436;2023-08-30T12:50:12;54.05;48.96;64.92;;
64642;Laerm;59936;51.490;5.436;2023-08-30T12:52:41;52.16;49.41;55.03;;
64642;Laerm;59936;51.490;5.436;2023-08-30T12:55:09;50.46;47.42;63.31;;
64642;Laerm;59936;51.490;5.436;2023-08-30T12:57:38;49.70;47.22;55.35;;
64642;Laerm;59936;51.490;5.436;2023-08-30T13:00:07;53.62;46.92;67.32;;
64642;Laerm;59936;51.490;5.436;2023-08-30T13:02:36;50.49;47.82;54.64;;
64642;Laerm;59936;51.490;5.436;2023-08-30T13:05:05;50.15;46.76;56.38;;
64642;Laerm;59936;51.490;5.436;2023-08-30T13:07:34;53.10;47.72;62.07;;
64642;Laerm;59936;51.490;5.436;2023-08-30T13:10:03;51.31;47.31;69.99;;
64642;Laerm;59936;51.490;5.436;2023-08-30T13:12:35;55.86;48.56;73.62;;
64642;Laerm;59936;51.490;5.436;2023-08-30T13:15:05;56.23;49.31;70.57;;
64642;Laerm;59936;51.490;5.436;2023-08-30T13:17:34;54.48;48.33;67.46;;
64642;Laerm;59936;51.490;5.436;2023-08-30T13:20:03;50.59;48.60;55.22;;
64642;Laerm;59936;51.490;5.436;2023-08-30T13:22:32;54.86;48.09;65.25;;
64642;Laerm;59936;51.490;5.436;2023-08-30T13:25:00;49.16;46.72;54.47;;
64642;Laerm;59936;51.490;5.436;2023-08-30T13:27:29;52.08;46.82;63.07;;
64642;Laerm;59936;51.490;5.436;2023-08-30T13:29:58;55.79;48.48;70.63;;
64642;Laerm;59936;51.490;5.436;2023-08-30T13:32:27;53.01;49.44;69.50;;
64642;Laerm;59936;51.490;5.436;2023-08-30T13:35:01;56.85;48.78;78.99;;
64642;Laerm;59936;51.490;5.436;2023-08-30T13:37:30;51.17;48.55;55.05;;
64642;Laerm;59936;51.490;5.436;2023-08-30T13:39:58;51.61;48.59;61.18;;
64642;Laerm;59936;51.490;5.436;2023-08-30T13:42:27;53.17;50.03;57.85;;
64642;Laerm;59936;51.490;5.436;2023-08-30T13:44:55;52.60;50.03;62.78;;
64642;Laerm;59936;51.490;5.436;2023-08-30T13:47:24;53.48;50.27;63.23;;
64642;Laerm;59936;51.490;5.436;2023-08-30T13:49:53;53.00;50.17;65.13;;
64642;Laerm;59936;51.490;5.436;2023-08-30T13:52:21;54.10;51.12;64.77;;
64642;Laerm;59936;51.490;5.436;2023-08-30T13:54:50;52.61;48.88;63.43;;
64642;Laerm;59936;51.490;5.436;2023-08-30T13:57:19;53.66;49.69;67.20;;
64642;Laerm;59936;51.490;5.436;2023-08-30T13:59:47;55.73;50.45;69.73;;
64642;Laerm;59936;51.490;5.436;2023-08-30T14:02:16;54.44;50.00;63.41;;
64642;Laerm;59936;51.490;5.436;2023-08-30T14:04:44;52.46;49.98;57.16;;